KBLI/BLI METAR and TAF weather

Enter ICAO airport designator
Station Type Date Time Source
KBLI METAR 2018/04/26 14:53 UTC NOAA

KBLI 261453Z 03004KT 10SM CLR 12/06 A3005 RMK AO2 SLP184 T01170061 56002


Station Type Date Time Source
KBLI Decoded METAR 2018/04/26 14:53 UTC NOAA

BELLINGHAM INTERNATIONAL AIRPORT, WA, United States (KBLI) 48-48N 122-32W 50M
Apr 26, 2018 - 10:53 AM EDT / 2018.04.26 1453 UTC
Wind: from the NNE (030 degrees) at 5 MPH (4 KT):0
Visibility: 10 mile(s):0
Sky conditions: clear
Temperature: 53.1 F (11.7 C)
Dew Point: 43.0 F (6.1 C)
Relative Humidity: 68%
Pressure (altimeter): 30.05 in. Hg (1017 hPa)
Pressure tendency: 0.01 inches (0.2 hPa) lower than three hours ago
ob: KBLI 261453Z 03004KT 10SM CLR 12/06 A3005 RMK AO2 SLP184 T01170061 56002
cycle: 15

Station Type Date Time Source
KBLI TAF 2018/04/26 12:27 UTC NOAA

TAF KBLI 261124Z 2612/2712 00000KT P6SM SKC
FM261700 29006KT P6SM SKC
FM270200 00000KT P6SM SCT250
FM270900 19006KT P6SM SCT250


Example: see airport list